ENDR

Draugen Airport

Norway
METAR ENDR 181950Z AUTO 23019KT 06/04 Q1015
Observed Flight Rules
Dec-18 @ 19:50 UTC (35 minutes ago)
Wind
230° at 19 knots
Temperatures Readings
Current 6°C / 43°F
Dewpoint 4°C / 39°F
Humidity 87%
Altimeter 29.97" Hg
Pressure 1015 hPa
Elevation 50
METAR ENDR 181950Z AUTO 23019KT 06/04 Q1015
Observed Flight Rules
Dec-18 @ 19:50 UTC
(35 minutes ago)
Wind
230° at 19 knots
Temperature Dewpoint
6°C / 43°F 4°C / 39°F
Humidity Altimeter Pressure
87% 29.97" Hg 1015 hPa